Mid Ohio Valley Regional Airport
KPKB : now visible

Airfield :











YOU CAN JOIN US ON...

 
LOGIN :

Register | Disclaimer

   EN    FR    IT 

 









Legend :    VFR   Marginal VFR   IFR   Intensive IFR   Very Intensive IFR
Visi :
Ceiling :
>= 8 km
>= 3000ft
5 to 8 km
1000 to 3000 ft
1500m to 5 km
500 to 1000 ft
800 to 1500m
200 to 500 ft
< 800m
< 200 ft
Symbols :   Thunderstorms  Fog  Heavy snow  Heavy precipitations  Wind > 20 kt






- Airport Elevation : 858 ft
- IATA code : PKB


KPKB - Mid Ohio Valley Regional

CURRENT METAR :
  • 080653Z AUTO 25005KT 7SM -RA OVC039 10/08 A3018 RMK AO2 SLP217 P0003 T01000083

EXPIRED METARs :
  • 080553Z AUTO 29003KT 3SM -RA BR SCT026 OVC034 10/09 A3018 RMK AO2 SLP220 P0004 60018 T01000089 10150 20100 53005
  • 080453Z AUTO 23003KT 9SM -RA OVC038 10/09 A3017 RMK AO2 SLP215 P0001 T01000089 401611022

TAF KPKB
Valid from the 08 at 06:00 until the 09 at 06:00 UTC


080538Z 0806/0906 27007KT P6SM -SHRA OVC035
TEMPO 0806/0809 5SM -SHRA BR OVC015
FM080900 28006KT P6SM BKN035
FM081400 34004KT P6SM BKN028
FM081500 VRB03KT P6SM SCT080
KZID FIR / North America



MET'MAP, your aeronautical weather chart ! - Copyright ORBIFLY December 2007 - Disclaimer

ORBIFLY MET'MAP TEAM :

Programming & Development : Alexandra Zaïnal
Original concept : Baudouin d'Aumeries
Technical & hardware support : Manuel Goepfert
Assistance : Marc-Olivier Méhu




SOURCES & CREDITS :

   NOAA       Earth
Advisory